createdAt,value
2023-04-15T00:00:58.439Z,75.93
2023-04-15T00:03:25.670Z,75.73
2023-04-15T00:05:52.764Z,75.69
2023-04-15T00:08:20.432Z,75.91
2023-04-15T00:10:47.130Z,76.22
2023-04-15T00:13:13.683Z,75.74
2023-04-15T00:15:40.650Z,74.83
2023-04-15T00:18:08.286Z,75.21
2023-04-15T00:20:35.497Z,76.43
2023-04-15T00:23:04.217Z,75.72
2023-04-15T00:25:31.496Z,75.72
2023-04-15T00:27:58.273Z,75.48
2023-04-15T00:30:25.766Z,75.50
2023-04-15T00:32:52.851Z,74.95
2023-04-15T00:35:21.820Z,76.15
2023-04-15T00:37:51.383Z,74.78
2023-04-15T00:40:19.697Z,75.03
2023-04-15T00:42:46.300Z,75.09
2023-04-15T00:45:14.091Z,75.09
2023-04-15T00:47:45.027Z,75.02
2023-04-15T00:50:13.002Z,74.87
2023-04-15T00:52:40.630Z,74.19
2023-04-15T00:55:08.158Z,75.75
2023-04-15T00:57:35.508Z,75.23
2023-04-15T01:00:02.530Z,74.93
2023-04-15T01:02:29.474Z,75.72
2023-04-15T01:04:56.758Z,75.85
2023-04-15T01:07:23.352Z,75.40
2023-04-15T01:09:50.019Z,76.30
2023-04-15T01:12:17.243Z,76.68
2023-04-15T01:14:43.891Z,76.08
2023-04-15T01:17:10.513Z,75.62
2023-04-15T01:19:37.254Z,75.89
2023-04-15T01:22:04.172Z,75.23
2023-04-15T01:24:32.297Z,76.51
2023-04-15T01:26:59.321Z,76.94
2023-04-15T01:29:26.736Z,76.84
2023-04-15T01:31:55.123Z,76.71
2023-04-15T01:34:22.312Z,76.74
2023-04-15T01:36:48.921Z,75.45
2023-04-15T01:39:15.883Z,75.18
2023-04-15T01:41:42.468Z,75.80
2023-04-15T01:44:09.220Z,77.13
2023-04-15T01:46:36.504Z,77.30
2023-04-15T01:49:03.371Z,76.72
2023-04-15T01:51:32.216Z,77.30
2023-04-15T01:53:58.943Z,77.10
2023-04-15T01:56:25.545Z,76.78
2023-04-15T01:58:52.882Z,75.88
2023-04-15T02:01:19.961Z,76.12
2023-04-15T02:03:47.897Z,76.02
2023-04-15T02:06:15.422Z,76.38
2023-04-15T02:08:42.074Z,76.14
2023-04-15T02:11:09.329Z,75.04
2023-04-15T02:13:36.348Z,75.55
2023-04-15T02:16:03.646Z,76.23
2023-04-15T02:18:30.553Z,76.77
2023-04-15T02:20:58.694Z,76.16
2023-04-15T02:23:25.817Z,76.12
2023-04-15T02:25:53.682Z,76.93
2023-04-15T02:28:21.812Z,77.11
2023-04-15T02:30:52.512Z,76.53
2023-04-15T02:33:19.416Z,77.01
2023-04-15T02:35:46.061Z,77.59
2023-04-15T02:38:14.307Z,77.83
2023-04-15T02:40:41.538Z,77.75
2023-04-15T02:43:08.133Z,76.35
2023-04-15T02:45:35.581Z,76.93
2023-04-15T02:48:06.560Z,76.29
2023-04-15T02:50:33.550Z,76.39
2023-04-15T02:53:01.698Z,77.19
2023-04-15T02:55:29.328Z,77.14
2023-04-15T02:58:01.469Z,76.51
2023-04-15T03:00:28.329Z,76.84
2023-04-15T03:02:59.537Z,76.20
2023-04-15T03:05:26.592Z,76.22
2023-04-15T03:07:53.351Z,75.98
2023-04-15T03:10:21.465Z,75.63
2023-04-15T03:12:48.903Z,76.09
2023-04-15T03:15:21.186Z,77.10
2023-04-15T03:17:51.231Z,76.40
2023-04-15T03:20:17.985Z,75.85
2023-04-15T03:22:44.786Z,75.76
2023-04-15T03:25:11.910Z,74.84
2023-04-15T03:27:39.106Z,74.55
2023-04-15T03:30:07.684Z,75.35
2023-04-15T03:32:36.690Z,76.20
2023-04-15T03:35:03.502Z,76.63
2023-04-15T03:37:30.030Z,77.02
2023-04-15T03:39:56.644Z,77.32
2023-04-15T03:42:23.417Z,76.92
2023-04-15T03:44:49.976Z,76.62
2023-04-15T03:47:16.533Z,76.50
2023-04-15T03:49:43.059Z,76.41
2023-04-15T03:52:09.658Z,75.64
2023-04-15T03:54:36.265Z,76.26
2023-04-15T03:57:03.394Z,77.25
2023-04-15T03:59:30.016Z,77.39
2023-04-15T04:01:56.697Z,76.80
2023-04-15T04:04:23.520Z,76.66
2023-04-15T04:06:50.271Z,75.78
2023-04-15T04:09:16.860Z,76.74
2023-04-15T04:11:43.492Z,77.40
2023-04-15T04:14:10.533Z,76.88
2023-04-15T04:16:37.080Z,77.38
2023-04-15T04:19:03.875Z,77.06
2023-04-15T04:21:31.031Z,77.40
2023-04-15T04:23:59.025Z,77.00
2023-04-15T04:26:25.976Z,76.86
2023-04-15T04:28:52.515Z,76.35
2023-04-15T04:31:19.111Z,76.00
2023-04-15T04:33:45.784Z,75.26
2023-04-15T04:36:12.348Z,74.74
2023-04-15T04:38:38.874Z,75.31
2023-04-15T04:41:05.472Z,75.55
2023-04-15T04:43:32.024Z,75.30
2023-04-15T04:45:58.636Z,75.59
2023-04-15T04:48:25.206Z,75.29
2023-04-15T04:50:52.163Z,74.75
2023-04-15T04:53:18.823Z,75.77
2023-04-15T04:55:45.639Z,76.48
2023-04-15T04:58:12.550Z,76.21
2023-04-15T05:00:41.137Z,76.63
2023-04-15T05:03:07.870Z,76.36
2023-04-15T05:05:35.836Z,76.03
2023-04-15T05:08:02.764Z,75.48
2023-04-15T05:10:29.496Z,75.31
2023-04-15T05:12:56.081Z,76.24
2023-04-15T05:15:22.655Z,75.42
2023-04-15T05:17:49.238Z,74.96
2023-04-15T05:20:15.925Z,74.24
2023-04-15T05:22:42.559Z,73.97
2023-04-15T05:25:09.823Z,74.13
2023-04-15T05:27:36.738Z,74.27
2023-04-15T05:30:03.492Z,74.54
2023-04-15T05:32:30.077Z,74.51
2023-04-15T05:34:56.715Z,74.60
2023-04-15T05:37:23.331Z,74.38
2023-04-15T05:39:49.906Z,74.96
2023-04-15T05:42:16.720Z,74.63
2023-04-15T05:44:43.359Z,74.38
2023-04-15T05:47:10.899Z,74.32
2023-04-15T05:49:37.491Z,74.11
2023-04-15T05:52:04.176Z,74.30
2023-04-15T05:54:31.002Z,74.05
2023-04-15T05:56:58.317Z,73.47
2023-04-15T05:59:24.890Z,73.37
2023-04-15T06:01:52.183Z,73.48
2023-04-15T06:04:18.968Z,72.91
2023-04-15T06:06:45.608Z,73.01
2023-04-15T06:09:12.254Z,72.83
2023-04-15T06:11:38.896Z,71.82
2023-04-15T06:14:05.503Z,71.37
2023-04-15T06:16:32.301Z,70.80
2023-04-15T06:18:58.975Z,70.23
2023-04-15T06:21:25.713Z,70.37
2023-04-15T06:23:52.264Z,69.90
2023-04-15T06:26:18.773Z,69.26
2023-04-15T06:28:45.530Z,68.64
2023-04-15T06:31:12.076Z,67.45
2023-04-15T06:33:39.627Z,64.68
2023-04-15T06:36:06.330Z,66.26
2023-04-15T06:38:32.878Z,65.45
2023-04-15T06:40:59.465Z,66.57
2023-04-15T06:43:26.052Z,66.62
2023-04-15T06:45:52.650Z,66.32
2023-04-15T06:48:19.240Z,66.05
2023-04-15T06:50:45.787Z,66.23
2023-04-15T06:53:12.460Z,66.42
2023-04-15T06:55:39.100Z,66.34
2023-04-15T06:58:05.826Z,66.57
2023-04-15T07:00:33.952Z,66.63
2023-04-15T07:03:03.894Z,66.04
2023-04-15T07:05:32.463Z,65.77
2023-04-15T07:07:59.081Z,65.03
2023-04-15T07:10:26.079Z,65.41
2023-04-15T07:12:52.636Z,65.44
2023-04-15T07:15:19.571Z,64.95
2023-04-15T07:17:46.344Z,64.86
2023-04-15T07:20:13.185Z,64.36
2023-04-15T07:22:40.254Z,65.08
2023-04-15T07:25:07.616Z,65.08
2023-04-15T07:27:34.173Z,64.33
2023-04-15T07:30:00.966Z,64.19
2023-04-15T07:32:27.527Z,63.91
2023-04-15T07:34:54.617Z,63.50
2023-04-15T07:37:21.231Z,63.28
2023-04-15T07:39:48.027Z,63.29
2023-04-15T07:42:15.281Z,62.90
2023-04-15T07:44:42.005Z,62.57
2023-04-15T07:47:08.567Z,61.76
2023-04-15T07:49:35.164Z,61.08
2023-04-15T07:52:01.937Z,60.27
2023-04-15T07:54:28.498Z,59.20
2023-04-15T07:56:56.063Z,59.72
2023-04-15T07:59:22.956Z,59.28
2023-04-15T08:01:50.162Z,58.87
2023-04-15T08:04:17.023Z,59.10
2023-04-15T08:06:44.187Z,59.00
2023-04-15T08:09:11.572Z,58.16
2023-04-15T08:11:38.461Z,57.66
2023-04-15T08:14:05.420Z,57.49
2023-04-15T08:16:32.709Z,57.22
2023-04-15T08:19:00.119Z,55.10
2023-04-15T08:21:27.864Z,54.79
2023-04-15T08:23:54.913Z,53.71
2023-04-15T08:26:22.234Z,54.50
2023-04-15T08:28:49.538Z,52.12
2023-04-15T08:31:17.928Z,51.30
2023-04-15T08:33:45.858Z,48.83
2023-04-15T08:36:13.982Z,47.16
2023-04-15T08:38:41.563Z,46.21
2023-04-15T08:41:15.165Z,47.39
2023-04-15T08:43:54.321Z,41.46
2023-04-15T08:46:22.689Z,42.37
2023-04-15T08:48:50.393Z,43.31
2023-04-15T08:51:18.806Z,45.67
2023-04-15T08:53:47.624Z,45.26
2023-04-15T08:56:18.804Z,44.75
2023-04-15T08:58:48.602Z,42.77
2023-04-15T09:01:16.030Z,42.77
2023-04-15T09:03:43.237Z,41.47
2023-04-15T09:06:10.091Z,40.75
2023-04-15T09:08:36.867Z,40.46
2023-04-15T09:11:04.208Z,39.42
2023-04-15T09:13:32.162Z,39.01
2023-04-15T09:15:59.031Z,39.45
2023-04-15T09:18:36.155Z,40.13
2023-04-15T09:21:06.884Z,40.43
2023-04-15T09:23:34.246Z,40.27
2023-04-15T09:26:02.490Z,41.99
2023-04-15T09:28:29.690Z,40.10
2023-04-15T09:30:57.923Z,40.30
2023-04-15T09:33:27.232Z,39.23
2023-04-15T09:35:58.513Z,38.38
2023-04-15T09:38:25.697Z,38.24
2023-04-15T09:40:55.713Z,38.66
2023-04-15T09:43:23.088Z,38.24
2023-04-15T09:45:53.285Z,39.89
2023-04-15T09:48:27.459Z,40.63
2023-04-15T09:50:57.872Z,41.07
2023-04-15T09:53:25.721Z,40.48
2023-04-15T09:55:54.715Z,40.67
2023-04-15T09:58:29.855Z,39.75
2023-04-15T10:00:58.824Z,39.29
2023-04-15T10:03:31.666Z,38.83
2023-04-15T10:06:00.238Z,39.55
2023-04-15T10:08:33.724Z,39.13
2023-04-15T10:11:04.679Z,37.98
2023-04-15T10:13:37.222Z,39.10
2023-04-15T10:16:19.588Z,35.22
2023-04-15T10:18:50.722Z,36.98
2023-04-15T10:21:19.008Z,35.41
2023-04-15T10:23:46.372Z,37.76
2023-04-15T10:26:17.835Z,38.26
2023-04-15T10:28:47.285Z,36.27
2023-04-15T10:31:15.299Z,36.89
2023-04-15T10:33:48.659Z,37.76
2023-04-15T10:36:16.902Z,37.16
2023-04-15T10:38:47.565Z,37.19
2023-04-15T10:41:14.799Z,38.04
2023-04-15T10:43:54.149Z,37.43
2023-04-15T10:46:24.078Z,39.90
2023-04-15T10:48:52.546Z,39.79
2023-04-15T10:51:30.719Z,40.34
2023-04-15T10:53:59.531Z,39.98
2023-04-15T10:56:28.813Z,40.84
2023-04-15T10:58:55.727Z,40.70
2023-04-15T11:01:25.233Z,40.86
2023-04-15T11:03:52.356Z,40.78
2023-04-15T11:06:19.327Z,41.40
2023-04-15T11:08:56.797Z,40.32
2023-04-15T11:11:23.600Z,35.86
2023-04-15T11:13:54.797Z,37.46
2023-04-15T11:16:21.879Z,38.07
2023-04-15T11:18:58.288Z,36.68
2023-04-15T11:21:26.616Z,39.71
2023-04-15T11:23:53.460Z,40.06
2023-04-15T11:26:27.178Z,40.49
2023-04-15T11:28:54.873Z,41.06
2023-04-15T11:31:23.968Z,40.92
2023-04-15T11:33:55.231Z,40.25
2023-04-15T11:36:24.681Z,42.05
2023-04-15T11:38:51.544Z,42.38
2023-04-15T11:41:22.882Z,42.77
2023-04-15T11:43:50.794Z,43.39
2023-04-15T11:46:17.923Z,43.33
2023-04-15T11:48:47.124Z,44.30
2023-04-15T11:51:23.139Z,44.84
2023-04-15T11:53:52.156Z,44.79
2023-04-15T11:56:24.081Z,45.16
2023-04-15T11:58:57.227Z,46.07
2023-04-15T12:01:35.200Z,46.44
2023-04-15T12:04:04.021Z,45.80
2023-04-15T12:06:35.244Z,47.37
2023-04-15T12:09:14.497Z,47.94
2023-04-15T12:11:44.424Z,48.15
2023-04-15T12:14:25.023Z,48.11
2023-04-15T12:16:54.891Z,47.99
2023-04-15T12:19:27.600Z,50.18
2023-04-15T12:22:00.805Z,51.23
2023-04-15T12:24:31.082Z,50.90
2023-04-15T12:27:01.988Z,49.38
2023-04-15T12:29:30.283Z,49.10
2023-04-15T12:32:07.781Z,48.74
2023-04-15T12:34:36.861Z,48.15
2023-04-15T12:37:06.304Z,48.43
2023-04-15T12:39:36.648Z,48.34
2023-04-15T12:42:04.483Z,48.79
2023-04-15T12:44:33.213Z,50.40
2023-04-15T12:47:00.520Z,52.26
2023-04-15T12:49:28.066Z,51.28
2023-04-15T12:51:57.232Z,55.89
2023-04-15T12:54:24.018Z,56.09
2023-04-15T12:56:51.583Z,61.19
2023-04-15T12:59:19.049Z,63.78
2023-04-15T13:01:47.417Z,63.13
2023-04-15T13:04:15.634Z,64.40
2023-04-15T13:06:43.447Z,61.67
2023-04-15T13:09:12.744Z,63.05
2023-04-15T13:11:52.964Z,64.53
2023-04-15T13:14:31.847Z,65.70
2023-04-15T13:16:59.272Z,63.47
2023-04-15T13:19:26.741Z,61.72
2023-04-15T13:21:53.645Z,59.70
2023-04-15T13:24:20.411Z,56.04
2023-04-15T13:26:49.691Z,53.92
2023-04-15T13:29:17.145Z,55.38
2023-04-15T13:31:43.904Z,55.79
2023-04-15T13:34:11.024Z,55.26
2023-04-15T13:36:37.771Z,56.12
2023-04-15T13:39:05.607Z,52.81
2023-04-15T13:41:32.315Z,52.38
2023-04-15T13:43:59.101Z,54.92
2023-04-15T13:46:26.205Z,51.43
2023-04-15T13:48:53.541Z,51.11
2023-04-15T13:51:20.476Z,51.35
2023-04-15T13:53:47.273Z,50.59
2023-04-15T13:56:14.096Z,48.56
2023-04-15T13:58:41.580Z,48.29
2023-04-15T14:01:08.462Z,50.21
2023-04-15T14:03:36.601Z,50.81
2023-04-15T14:06:04.317Z,49.82
2023-04-15T14:08:31.699Z,48.21
2023-04-15T14:10:58.522Z,46.76
2023-04-15T14:13:25.388Z,47.86
2023-04-15T14:15:52.465Z,47.69
2023-04-15T14:18:19.457Z,46.60
2023-04-15T14:20:47.021Z,49.02
2023-04-15T14:23:13.872Z,47.13
2023-04-15T14:25:40.667Z,45.92
2023-04-15T14:28:07.625Z,47.00
2023-04-15T14:30:35.457Z,48.31
2023-04-15T14:33:02.565Z,47.55
2023-04-15T14:35:29.518Z,48.17
2023-04-15T14:37:57.674Z,49.70
2023-04-15T14:40:24.706Z,51.04
2023-04-15T14:42:51.845Z,50.66
2023-04-15T14:45:18.907Z,48.03
2023-04-15T14:47:46.925Z,49.66
2023-04-15T14:50:13.718Z,48.06
2023-04-15T14:52:40.981Z,47.13
2023-04-15T14:55:12.666Z,46.71
2023-04-15T14:57:41.681Z,46.33
2023-04-15T15:00:10.578Z,47.40
2023-04-15T15:02:40.466Z,45.33
2023-04-15T15:05:08.904Z,45.96
2023-04-15T15:07:38.259Z,46.35
2023-04-15T15:10:06.237Z,47.05
2023-04-15T15:12:33.686Z,45.39
2023-04-15T15:15:03.003Z,44.25
2023-04-15T15:17:32.004Z,45.75
2023-04-15T15:19:58.830Z,40.25
2023-04-15T15:22:26.267Z,41.47
2023-04-15T15:24:53.722Z,40.31
2023-04-15T15:27:20.859Z,37.98
2023-04-15T15:29:47.787Z,39.04
2023-04-15T15:32:14.723Z,39.82
2023-04-15T15:34:41.514Z,39.70
2023-04-15T15:37:08.605Z,39.49
2023-04-15T15:39:36.762Z,38.29
2023-04-15T15:42:04.290Z,40.63
2023-04-15T15:44:32.981Z,40.27
2023-04-15T15:47:03.121Z,41.33
2023-04-15T15:49:31.189Z,41.15
2023-04-15T15:51:58.199Z,41.33
2023-04-15T15:54:25.312Z,42.96
2023-04-15T15:56:54.288Z,43.94
2023-04-15T15:59:21.157Z,44.54
2023-04-15T16:01:48.322Z,44.11
2023-04-15T16:04:17.540Z,46.45
2023-04-15T16:06:47.828Z,45.79
2023-04-15T16:09:14.700Z,45.98
2023-04-15T16:11:41.947Z,48.58
2023-04-15T16:14:09.457Z,48.07
2023-04-15T16:16:37.242Z,48.19
2023-04-15T16:19:04.819Z,48.35
2023-04-15T16:21:34.455Z,48.90
2023-04-15T16:24:02.451Z,49.89
2023-04-15T16:26:32.109Z,50.07
2023-04-15T16:28:59.353Z,53.02
2023-04-15T16:31:26.947Z,51.96
2023-04-15T16:33:53.782Z,51.99
2023-04-15T16:36:21.228Z,52.08
2023-04-15T16:38:49.222Z,53.02
2023-04-15T16:41:19.176Z,53.03
2023-04-15T16:43:46.291Z,52.79
2023-04-15T16:46:13.086Z,51.92
2023-04-15T16:48:40.401Z,53.18
2023-04-15T16:51:07.553Z,54.41
2023-04-15T16:53:35.748Z,54.91
2023-04-15T16:56:02.997Z,53.77
2023-04-15T16:58:31.194Z,53.56
2023-04-15T17:00:59.023Z,55.18
2023-04-15T17:03:26.399Z,55.11
2023-04-15T17:05:54.032Z,55.24
2023-04-15T17:08:21.844Z,55.30
2023-04-15T17:10:49.731Z,55.22
2023-04-15T17:13:22.571Z,55.08
2023-04-15T17:15:51.345Z,56.71
2023-04-15T17:18:19.146Z,55.92
2023-04-15T17:20:46.338Z,55.94
2023-04-15T17:23:16.152Z,56.83
2023-04-15T17:25:42.900Z,56.35
2023-04-15T17:28:10.834Z,56.76
2023-04-15T17:30:37.744Z,57.84
2023-04-15T17:33:57.469Z,57.59
2023-04-15T17:35:51.400Z,57.67
2023-04-15T17:38:18.270Z,57.82
2023-04-15T17:40:45.263Z,57.81
2023-04-15T17:43:12.009Z,58.54
2023-04-15T17:45:38.934Z,58.20
2023-04-15T17:48:05.830Z,58.56
2023-04-15T17:50:32.680Z,58.18
2023-04-15T17:53:01.585Z,58.19
2023-04-15T17:55:28.603Z,57.69
2023-04-15T17:57:55.719Z,58.61
2023-04-15T18:00:22.727Z,59.18
2023-04-15T18:02:50.727Z,58.66
2023-04-15T18:05:19.862Z,59.11
2023-04-15T18:07:46.989Z,59.39
2023-04-15T18:10:14.160Z,59.11
2023-04-15T18:12:41.158Z,58.54
2023-04-15T18:15:09.606Z,59.07
2023-04-15T18:17:36.619Z,60.80
2023-04-15T18:20:04.035Z,59.74
2023-04-15T18:22:30.803Z,60.01
2023-04-15T18:25:04.110Z,60.33
2023-04-15T18:27:38.978Z,61.33
2023-04-15T18:30:12.491Z,60.65
2023-04-15T18:32:39.838Z,61.16
2023-04-15T18:35:07.081Z,60.54
2023-04-15T18:37:34.325Z,61.48
2023-04-15T18:40:01.549Z,61.90
2023-04-15T18:42:28.850Z,61.93
2023-04-15T18:44:55.776Z,61.99
2023-04-15T18:47:23.828Z,62.18
2023-04-15T18:49:52.123Z,62.58
2023-04-15T18:52:19.146Z,63.12
2023-04-15T18:54:45.963Z,63.40
2023-04-15T18:57:12.763Z,64.28
2023-04-15T18:59:39.770Z,63.29
2023-04-15T19:02:07.557Z,63.47
2023-04-15T19:04:34.810Z,63.16
2023-04-15T19:07:02.082Z,65.46
2023-04-15T19:09:29.408Z,64.22
2023-04-15T19:11:57.117Z,66.45
2023-04-15T19:14:23.972Z,66.52
2023-04-15T19:16:51.155Z,66.82
2023-04-15T19:19:18.423Z,67.18
2023-04-15T19:21:50.378Z,67.45
2023-04-15T19:24:18.213Z,68.20
2023-04-15T19:26:48.588Z,69.06
2023-04-15T19:29:15.745Z,71.15
2023-04-15T19:31:42.885Z,71.00
2023-04-15T19:34:09.854Z,71.77
2023-04-15T19:36:36.771Z,71.39
2023-04-15T19:39:03.722Z,71.99
2023-04-15T19:41:44.384Z,74.15
2023-04-15T19:44:15.149Z,73.34
2023-04-15T19:46:45.271Z,72.69
2023-04-15T19:49:12.488Z,73.45
2023-04-15T19:51:39.194Z,72.91
2023-04-15T19:54:06.063Z,72.39
2023-04-15T19:56:34.410Z,74.04
2023-04-15T19:59:02.165Z,73.64
2023-04-15T20:01:29.131Z,75.47
2023-04-15T20:03:56.353Z,74.81
2023-04-15T20:06:23.874Z,75.16
2023-04-15T20:08:51.844Z,73.44
2023-04-15T20:11:19.098Z,74.19
2023-04-15T20:13:48.241Z,74.62
2023-04-15T20:16:16.840Z,74.55
2023-04-15T20:18:45.056Z,75.33
2023-04-15T20:21:13.989Z,73.94
2023-04-15T20:23:44.579Z,73.84
2023-04-15T20:26:12.119Z,75.79
2023-04-15T20:28:39.079Z,75.56
2023-04-15T20:31:06.429Z,75.86
2023-04-15T20:33:33.432Z,75.43
2023-04-15T20:36:00.335Z,75.16
2023-04-15T20:38:27.365Z,74.33
2023-04-15T20:40:54.507Z,73.93
2023-04-15T20:43:26.485Z,74.31
2023-04-15T20:46:02.147Z,75.79
2023-04-15T20:48:34.376Z,76.29
2023-04-15T20:51:03.425Z,75.34
2023-04-15T20:53:31.759Z,74.72
2023-04-15T20:56:02.122Z,74.34
2023-04-15T20:58:31.750Z,74.82
2023-04-15T21:01:02.312Z,75.12
2023-04-15T21:03:30.060Z,74.79
2023-04-15T21:05:57.206Z,74.62
2023-04-15T21:08:29.796Z,74.29
2023-04-15T21:10:57.657Z,75.40
2023-04-15T21:13:24.532Z,75.90
2023-04-15T21:15:54.061Z,75.26
2023-04-15T21:18:22.232Z,75.40
2023-04-15T21:21:02.278Z,75.94
2023-04-15T21:23:35.884Z,75.45
2023-04-15T21:26:03.073Z,75.34
2023-04-15T21:28:30.063Z,75.59
2023-04-15T21:30:57.558Z,75.55
2023-04-15T21:33:24.374Z,76.42
2023-04-15T21:35:51.452Z,76.87
2023-04-15T21:38:18.219Z,76.30
2023-04-15T21:40:45.037Z,76.32
2023-04-15T21:43:11.986Z,76.61
2023-04-15T21:45:39.574Z,76.93
2023-04-15T21:48:08.368Z,76.70
2023-04-15T21:50:38.732Z,76.62
2023-04-15T21:53:08.139Z,77.80
2023-04-15T21:55:36.143Z,76.85
2023-04-15T21:58:02.967Z,76.97
2023-04-15T22:00:29.905Z,76.59
2023-04-15T22:02:57.100Z,76.62
2023-04-15T22:05:26.277Z,77.21
2023-04-15T22:07:53.217Z,77.08
2023-04-15T22:10:21.165Z,77.46
2023-04-15T22:12:48.146Z,77.40
2023-04-15T22:15:15.412Z,77.75
2023-04-15T22:17:42.347Z,77.05
2023-04-15T22:20:09.805Z,76.94
2023-04-15T22:22:43.814Z,77.56
2023-04-15T22:25:11.880Z,77.44
2023-04-15T22:27:38.602Z,77.39
2023-04-15T22:30:06.075Z,78.22
2023-04-15T22:32:32.914Z,78.57
2023-04-15T22:34:59.682Z,78.44
2023-04-15T22:37:30.493Z,78.37
2023-04-15T22:39:57.722Z,78.07
2023-04-15T22:42:24.876Z,77.94
2023-04-15T22:44:51.741Z,78.79
2023-04-15T22:47:20.792Z,79.04
2023-04-15T22:49:47.561Z,78.88
2023-04-15T22:52:23.444Z,78.04
2023-04-15T22:54:54.179Z,78.13
2023-04-15T22:57:20.893Z,77.68
2023-04-15T22:59:47.678Z,77.59
2023-04-15T23:02:14.598Z,78.27
2023-04-15T23:04:41.734Z,78.45
2023-04-15T23:07:08.691Z,77.69
2023-04-15T23:09:35.614Z,77.41
2023-04-15T23:12:03.672Z,79.08
2023-04-15T23:14:30.960Z,78.32
2023-04-15T23:16:58.066Z,78.65
2023-04-15T23:19:25.052Z,78.43
2023-04-15T23:21:51.998Z,78.23
2023-04-15T23:24:18.797Z,78.06
2023-04-15T23:26:45.619Z,77.95
2023-04-15T23:29:12.539Z,78.25
2023-04-15T23:31:41.486Z,78.40
2023-04-15T23:34:10.940Z,78.34
2023-04-15T23:36:37.704Z,78.89
2023-04-15T23:39:04.609Z,78.68
2023-04-15T23:41:31.473Z,78.56
2023-04-15T23:43:58.235Z,78.81
2023-04-15T23:46:24.983Z,79.31
2023-04-15T23:48:51.678Z,79.56
2023-04-15T23:51:18.400Z,79.36
2023-04-15T23:53:45.200Z,78.75
2023-04-15T23:56:12.007Z,78.49
2023-04-15T23:58:38.702Z,78.50
